首页
METAR-TAF:

METAR-TAF

机场 :

印威內斯, 苏格兰

纬度: 57-32N, 经度: 004-03W, 海拔: 9米

当前天气观测

该预报发布于28分钟前的16:20 UTC
风速11节,风向西
温度 8°C
湿度 81%
气压 991 hPa
能见度10公里或以上
散云层高于2600英尺
多云层高于4000英尺
小雨

METAR: EGPE 051620Z 28011KT 9999 -RA SCT026 BKN040 08/05 Q0991

时间: 17:48 (16:48 UTC)

预报

该预报发布于2小时和47分钟前的14:01 UTC
预报有效从05日的 15点(UTC)到 05日的 24点(UTC)
风速18节,风向西转西北
能见度10公里或以上
散云层高于2000英尺
短暂存在
从 05日的 15点(UTC)到 05日的 24点(UTC)
能見度: 6000
多云层高于1200英尺
雨, 阵雨
短暂存在
从 05日的 15点(UTC)到 05日的 20点(UTC)
风速20节,风向西转西北,有时为30节阵风
几率 40% :
短暂存在
从 05日的 15点(UTC)到 05日的 24点(UTC)
能見度: 4000
多云层高于800英尺
雨, 毛毛雨
成为
从 05日的 20点(UTC)到 05日的 23点(UTC)
风速15节,风向
几率 30% :
短暂存在
从 05日的 20点(UTC)到 05日的 24点(UTC)
风速18节,风向,有时为28节阵风

TAF: EGPE 051401Z 0515/0524 29018KT 9999 SCT020 TEMPO 0515/0524 6000 RA SHRA BKN012 TEMPO 0515/0520 30020G30KT PROB40 TEMPO 0515/0524 4000 RADZ BKN008 BECMG 0520/0523 36015KT PROB30 TEMPO 0520/0524 01018G28KT

超过4000个机场的气象观测和天气预报(METAR&TAF报告)。

可查询的气象台以黄色和红色小点在地图上表示。

将鼠标移到小点上方,可查看气象台名称。

然后点击查看天气观测和预报。

如需切换地图:点击带黑十字的绿色按钮放大地图;点击带横线的绿色按钮缩小地图;或者点击绿色箭头查看邻近地区的地图。


METAR-TAF: